createdAt,value
2022-09-30T00:01:44.478Z,8.80
2022-09-30T00:04:17.059Z,8.70
2022-09-30T00:06:44.918Z,8.80
2022-09-30T00:09:13.142Z,8.70
2022-09-30T00:11:41.241Z,8.80
2022-09-30T00:14:09.452Z,8.90
2022-09-30T00:16:38.162Z,8.90
2022-09-30T00:19:06.192Z,8.80
2022-09-30T00:21:35.485Z,8.80
2022-09-30T00:24:03.681Z,8.90
2022-09-30T00:26:31.588Z,9.00
2022-09-30T00:29:00.245Z,9.00
2022-09-30T00:31:29.267Z,8.90
2022-09-30T00:34:09.215Z,8.80
2022-09-30T00:36:40.542Z,8.80
2022-09-30T00:39:09.080Z,8.60
2022-09-30T00:41:37.558Z,8.70
2022-09-30T00:44:38.937Z,8.80
2022-09-30T00:47:07.272Z,8.90
2022-09-30T00:49:35.203Z,8.80
2022-09-30T00:52:04.401Z,8.70
2022-09-30T00:54:32.232Z,8.80
2022-09-30T00:57:02.010Z,8.70
2022-09-30T00:59:33.249Z,8.70
2022-09-30T01:02:01.419Z,8.80
2022-09-30T01:04:30.546Z,8.90
2022-09-30T01:07:00.484Z,8.90
2022-09-30T01:09:30.152Z,8.90
2022-09-30T01:11:58.005Z,8.80
2022-09-30T01:14:26.658Z,8.80
2022-09-30T01:16:58.968Z,8.80
2022-09-30T01:19:55.355Z,8.70
2022-09-30T01:22:27.092Z,8.60
2022-09-30T01:25:28.294Z,8.70
2022-09-30T01:28:18.302Z,8.80
2022-09-30T01:30:55.533Z,8.90
2022-09-30T01:33:28.793Z,8.80
2022-09-30T01:36:07.070Z,8.80
2022-09-30T01:38:42.169Z,8.90
2022-09-30T01:41:11.605Z,8.90
2022-09-30T01:43:44.663Z,8.80
2022-09-30T01:46:20.900Z,8.90
2022-09-30T01:48:52.491Z,8.90
2022-09-30T01:51:23.211Z,9.00
2022-09-30T01:53:52.991Z,8.90
2022-09-30T01:56:23.636Z,8.90
2022-09-30T01:58:53.824Z,9.00
2022-09-30T02:01:26.549Z,9.00
2022-09-30T02:03:55.716Z,8.80
2022-09-30T02:06:25.771Z,8.70
2022-09-30T02:08:56.748Z,8.60
2022-09-30T02:11:26.232Z,8.50
2022-09-30T02:13:56.794Z,8.60
2022-09-30T02:16:27.408Z,8.50
2022-09-30T02:18:57.042Z,8.50
2022-09-30T02:21:26.987Z,8.50
2022-09-30T02:23:57.537Z,8.50
2022-09-30T02:26:26.994Z,8.40
2022-09-30T02:28:58.215Z,8.50
2022-09-30T02:31:27.785Z,8.50
2022-09-30T02:33:57.812Z,8.40
2022-09-30T02:36:29.100Z,8.50
2022-09-30T02:39:00.136Z,8.60
2022-09-30T02:41:28.016Z,8.70
2022-09-30T02:43:56.037Z,8.60
2022-09-30T02:46:32.652Z,8.70
2022-09-30T02:49:03.516Z,8.70
2022-09-30T02:51:36.944Z,8.50
2022-09-30T02:54:06.928Z,8.60
2022-09-30T02:56:38.725Z,8.60
2022-09-30T02:59:06.622Z,8.40
2022-09-30T03:01:41.817Z,8.50
2022-09-30T03:04:10.005Z,8.50
2022-09-30T03:06:37.997Z,8.30
2022-09-30T03:09:05.952Z,8.70
2022-09-30T03:11:33.863Z,8.60
2022-09-30T03:14:25.024Z,8.60
2022-09-30T03:17:19.676Z,9.10
2022-09-30T03:20:02.513Z,9.00
2022-09-30T03:22:41.676Z,8.70
2022-09-30T03:25:24.379Z,8.40
2022-09-30T03:28:00.147Z,8.50
2022-09-30T03:30:28.978Z,8.40
2022-09-30T03:33:07.361Z,8.30
2022-09-30T03:35:44.399Z,8.30
2022-09-30T03:38:15.757Z,8.40
2022-09-30T03:40:46.398Z,8.40
2022-09-30T03:43:19.789Z,8.40
2022-09-30T03:45:51.403Z,8.50
2022-09-30T03:48:20.671Z,8.50
2022-09-30T03:50:48.925Z,8.50
2022-09-30T03:53:17.252Z,8.50
2022-09-30T03:55:49.101Z,8.30
2022-09-30T03:58:17.152Z,8.30
2022-09-30T04:00:48.666Z,8.40
2022-09-30T04:03:17.020Z,8.50
2022-09-30T04:05:46.979Z,8.40
2022-09-30T04:08:15.384Z,8.50
2022-09-30T04:10:44.156Z,8.40
2022-09-30T04:13:12.798Z,8.50
2022-09-30T04:15:40.752Z,8.50
2022-09-30T04:18:08.781Z,8.50
2022-09-30T04:20:36.874Z,8.50
2022-09-30T04:23:06.276Z,8.40
2022-09-30T04:25:34.262Z,8.40
2022-09-30T04:28:02.743Z,8.50
2022-09-30T04:30:33.592Z,8.50
2022-09-30T04:33:01.744Z,8.50
2022-09-30T04:35:30.372Z,8.40
2022-09-30T04:38:14.847Z,8.40
2022-09-30T04:40:42.965Z,8.50
2022-09-30T04:43:10.833Z,8.40
2022-09-30T04:45:39.358Z,8.40
2022-09-30T04:48:07.681Z,8.60
2022-09-30T04:50:35.692Z,8.60
2022-09-30T04:53:04.128Z,8.50
2022-09-30T04:55:33.416Z,8.50
2022-09-30T04:58:01.672Z,8.40
2022-09-30T05:00:30.027Z,8.30
2022-09-30T05:02:58.834Z,8.20
2022-09-30T05:05:27.172Z,8.30
2022-09-30T05:07:55.446Z,8.30
2022-09-30T05:10:23.371Z,8.40
2022-09-30T05:12:53.571Z,8.40
2022-09-30T05:15:21.800Z,8.40
2022-09-30T05:17:50.382Z,8.40
2022-09-30T05:20:21.307Z,8.40
2022-09-30T05:22:49.615Z,8.20
2022-09-30T05:25:17.930Z,8.30
2022-09-30T05:27:45.985Z,8.30
2022-09-30T05:30:15.593Z,8.40
2022-09-30T05:32:43.511Z,8.50
2022-09-30T05:35:12.200Z,8.50
2022-09-30T05:37:40.140Z,8.50
2022-09-30T05:40:09.037Z,8.50
2022-09-30T05:42:37.043Z,8.50
2022-09-30T05:45:05.608Z,8.50
2022-09-30T05:47:34.858Z,8.40
2022-09-30T05:50:02.934Z,8.40
2022-09-30T05:52:30.824Z,8.50
2022-09-30T05:55:01.159Z,8.50
2022-09-30T05:57:29.533Z,8.40
2022-09-30T05:59:58.144Z,8.40
2022-09-30T06:02:26.176Z,8.50
2022-09-30T06:04:55.950Z,8.50
2022-09-30T06:07:23.906Z,8.50
2022-09-30T06:09:51.977Z,8.40
2022-09-30T06:12:20.077Z,8.50
2022-09-30T06:14:48.020Z,8.60
2022-09-30T06:17:18.827Z,8.70
2022-09-30T06:19:46.793Z,8.90
2022-09-30T06:22:16.257Z,8.90
2022-09-30T06:24:44.169Z,9.00
2022-09-30T06:27:12.483Z,8.90
2022-09-30T06:29:40.360Z,8.80
2022-09-30T06:32:08.417Z,8.80
2022-09-30T06:34:36.456Z,8.80
2022-09-30T06:37:04.577Z,8.80
2022-09-30T06:39:33.939Z,8.80
2022-09-30T06:42:02.235Z,8.80
2022-09-30T06:44:30.203Z,8.80
2022-09-30T06:47:18.928Z,8.90
2022-09-30T06:49:50.064Z,8.90
2022-09-30T06:52:18.412Z,8.90
2022-09-30T06:54:49.719Z,8.90
2022-09-30T06:57:22.433Z,8.90
2022-09-30T06:59:50.680Z,8.90
2022-09-30T07:02:18.880Z,8.90
2022-09-30T07:04:46.882Z,8.80
2022-09-30T07:07:15.213Z,8.80
2022-09-30T07:09:43.580Z,8.80
2022-09-30T07:12:12.939Z,9.00
2022-09-30T07:14:40.978Z,9.10
2022-09-30T07:17:09.049Z,9.00
2022-09-30T07:19:36.945Z,9.10
2022-09-30T07:22:18.870Z,9.20
2022-09-30T07:24:46.735Z,9.40
2022-09-30T07:27:16.062Z,9.40
2022-09-30T07:30:07.713Z,9.40
2022-09-30T07:32:32.066Z,9.50
2022-09-30T07:34:59.973Z,9.50
2022-09-30T07:37:27.954Z,9.70
2022-09-30T07:39:55.840Z,9.70
2022-09-30T07:42:25.226Z,9.60
2022-09-30T07:44:53.584Z,9.50
2022-09-30T07:47:21.533Z,9.70
2022-09-30T07:49:49.443Z,9.70
2022-09-30T07:52:17.316Z,9.60
2022-09-30T07:54:50.241Z,9.40
2022-09-30T07:57:18.746Z,9.60
2022-09-30T07:59:47.942Z,10.60
2022-09-30T08:02:17.760Z,10.20
2022-09-30T08:04:45.801Z,10.10
2022-09-30T08:07:13.797Z,9.90
2022-09-30T08:09:41.889Z,9.80
2022-09-30T08:12:10.033Z,9.80
2022-09-30T08:14:37.880Z,10.00
2022-09-30T08:17:07.300Z,9.90
2022-09-30T08:19:35.279Z,10.00
2022-09-30T08:24:36.353Z,10.40
2022-09-30T08:27:04.584Z,10.20
2022-09-30T08:32:21.803Z,10.10
2022-09-30T08:34:49.739Z,10.20
2022-09-30T08:37:18.431Z,10.20
2022-09-30T08:39:48.288Z,10.30
2022-09-30T08:42:40.555Z,10.30
2022-09-30T08:45:20.086Z,10.50
2022-09-30T08:47:52.455Z,10.40
2022-09-30T08:50:24.272Z,10.90
2022-09-30T08:52:53.122Z,11.50
2022-09-30T08:55:22.829Z,12.30
2022-09-30T08:57:50.900Z,12.80
2022-09-30T09:00:19.502Z,12.70
2022-09-30T09:02:50.106Z,12.60
2022-09-30T09:05:25.009Z,12.30
2022-09-30T09:07:56.612Z,11.90
2022-09-30T09:10:29.450Z,11.90
2022-09-30T09:13:00.451Z,11.60
2022-09-30T09:15:40.859Z,11.70
2022-09-30T09:18:35.519Z,11.80
2022-09-30T09:21:09.575Z,11.80
2022-09-30T09:23:37.456Z,11.80
2022-09-30T09:26:05.697Z,12.00
2022-09-30T09:28:37.081Z,11.90
2022-09-30T09:31:05.745Z,12.10
2022-09-30T09:33:36.847Z,12.10
2022-09-30T09:36:14.972Z,12.30
2022-09-30T09:38:53.749Z,12.40
2022-09-30T09:41:26.827Z,12.50
2022-09-30T09:43:59.782Z,12.80
2022-09-30T09:46:28.758Z,12.90
2022-09-30T09:49:41.867Z,13.20
2022-09-30T09:52:38.499Z,13.20
2022-09-30T09:55:06.919Z,13.30
2022-09-30T09:57:34.838Z,13.30
2022-09-30T10:00:27.056Z,13.20
2022-09-30T10:03:02.100Z,12.70
2022-09-30T10:05:32.425Z,12.80
2022-09-30T10:08:12.495Z,12.90
2022-09-30T10:10:46.118Z,12.80
2022-09-30T10:13:21.615Z,12.60
2022-09-30T10:15:49.854Z,12.40
2022-09-30T10:18:19.811Z,12.60
2022-09-30T10:20:52.247Z,12.50
2022-09-30T10:23:22.207Z,12.40
2022-09-30T10:25:57.383Z,12.30
2022-09-30T10:28:26.535Z,12.10
2022-09-30T10:30:56.564Z,12.00
2022-09-30T10:33:27.580Z,12.20
2022-09-30T10:36:05.285Z,12.30
2022-09-30T10:38:34.774Z,12.10
2022-09-30T10:41:03.627Z,12.30
2022-09-30T10:43:35.481Z,12.20
2022-09-30T10:46:25.369Z,12.10
2022-09-30T10:48:53.826Z,12.20
2022-09-30T10:51:28.235Z,12.10
2022-09-30T10:53:57.939Z,12.00
2022-09-30T10:56:41.320Z,12.10
2022-09-30T10:59:16.739Z,12.10
2022-09-30T11:01:47.242Z,12.00
2022-09-30T11:04:18.876Z,11.90
2022-09-30T11:06:46.736Z,11.80
2022-09-30T11:09:18.332Z,11.70
2022-09-30T11:11:47.866Z,11.80
2022-09-30T11:14:21.853Z,11.90
2022-09-30T11:16:54.037Z,11.90
2022-09-30T11:19:25.076Z,12.00
2022-09-30T11:21:54.883Z,12.00
2022-09-30T11:24:27.154Z,12.20
2022-09-30T11:27:00.071Z,12.30
2022-09-30T11:29:51.717Z,12.50
2022-09-30T11:32:30.903Z,12.50
2022-09-30T11:35:04.253Z,12.50
2022-09-30T11:37:39.028Z,12.50
2022-09-30T11:40:34.568Z,12.30
2022-09-30T11:43:10.026Z,12.10
2022-09-30T11:45:55.222Z,12.20
2022-09-30T11:48:32.930Z,12.20
2022-09-30T11:51:05.230Z,12.20
2022-09-30T11:53:38.937Z,11.90
2022-09-30T11:56:21.616Z,12.00
2022-09-30T11:58:50.888Z,12.00
2022-09-30T12:01:22.490Z,12.00
2022-09-30T12:03:57.319Z,12.00
2022-09-30T12:06:28.059Z,11.80
2022-09-30T12:08:58.049Z,11.80
2022-09-30T12:11:32.191Z,11.70
2022-09-30T12:14:01.870Z,11.80
2022-09-30T12:16:33.406Z,11.80
2022-09-30T12:19:03.846Z,11.70
2022-09-30T12:21:34.021Z,11.80
2022-09-30T12:24:04.100Z,11.70
2022-09-30T12:26:33.483Z,11.80
2022-09-30T12:29:21.031Z,11.80
2022-09-30T12:32:01.686Z,11.80
2022-09-30T12:34:38.799Z,11.80
2022-09-30T12:37:19.029Z,12.00
2022-09-30T12:40:03.237Z,11.80
2022-09-30T12:42:54.935Z,11.70
2022-09-30T12:45:49.792Z,11.70
2022-09-30T12:48:18.778Z,11.60
2022-09-30T12:50:52.904Z,11.60
2022-09-30T12:53:23.011Z,11.50
2022-09-30T12:55:50.872Z,11.60
2022-09-30T12:58:29.801Z,11.70
2022-09-30T13:01:05.609Z,11.70
2022-09-30T13:03:47.017Z,11.60
2022-09-30T13:06:15.931Z,11.60
2022-09-30T13:08:48.609Z,11.70
2022-09-30T13:11:39.969Z,11.60
2022-09-30T13:14:25.115Z,11.60
2022-09-30T13:17:18.391Z,11.60
2022-09-30T13:19:47.321Z,11.70
2022-09-30T13:22:51.724Z,11.70
2022-09-30T13:25:20.248Z,11.80
2022-09-30T13:27:49.953Z,11.80
2022-09-30T13:30:41.020Z,11.90
2022-09-30T13:33:32.057Z,11.80
2022-09-30T13:36:08.475Z,11.60
2022-09-30T13:38:39.629Z,11.60
2022-09-30T13:41:15.773Z,11.60
2022-09-30T13:43:45.090Z,11.60
2022-09-30T13:46:15.665Z,11.60
2022-09-30T13:48:44.545Z,11.60
2022-09-30T13:51:15.032Z,11.70
2022-09-30T13:53:45.442Z,11.70
2022-09-30T13:56:17.191Z,11.80
2022-09-30T13:59:20.105Z,11.80
2022-09-30T14:02:08.500Z,11.90
2022-09-30T14:12:24.614Z,11.80
2022-09-30T14:15:06.433Z,11.60
2022-09-30T14:17:57.330Z,11.50
2022-09-30T14:20:36.812Z,11.70
2022-09-30T14:23:05.202Z,11.80
2022-09-30T14:25:34.905Z,11.90
2022-09-30T14:28:04.471Z,12.00
2022-09-30T14:30:35.477Z,12.00
2022-09-30T14:33:09.946Z,12.30
2022-09-30T14:35:37.950Z,12.60
2022-09-30T14:38:06.649Z,12.80
2022-09-30T14:40:36.085Z,13.00
2022-09-30T14:43:05.136Z,13.20
2022-09-30T14:45:34.398Z,13.40
2022-09-30T14:51:47.071Z,13.70
2022-09-30T14:54:19.768Z,13.70
2022-09-30T14:56:48.219Z,13.90
2022-09-30T14:59:18.568Z,14.00
2022-09-30T15:01:47.593Z,13.60
2022-09-30T15:04:16.310Z,13.70
2022-09-30T15:06:47.646Z,13.60
2022-09-30T15:09:20.228Z,13.70
2022-09-30T15:11:48.549Z,13.50
2022-09-30T15:14:18.808Z,13.40
2022-09-30T15:16:47.625Z,13.30
2022-09-30T15:19:18.792Z,13.30
2022-09-30T15:21:49.183Z,13.10
2022-09-30T15:24:17.356Z,13.00
2022-09-30T15:26:47.073Z,13.10
2022-09-30T15:29:15.377Z,13.00
2022-09-30T15:31:45.513Z,12.70
2022-09-30T15:34:19.248Z,12.70
2022-09-30T15:36:57.841Z,12.70
2022-09-30T15:39:47.693Z,12.60
2022-09-30T15:42:16.204Z,12.60
2022-09-30T15:44:44.857Z,12.50
2022-09-30T15:47:12.904Z,12.30
2022-09-30T15:49:49.739Z,12.30
2022-09-30T15:52:36.369Z,12.30
2022-09-30T15:55:19.808Z,12.30
2022-09-30T15:57:48.669Z,12.30
2022-09-30T16:00:35.427Z,12.40
2022-09-30T16:03:27.591Z,12.40
2022-09-30T16:05:55.809Z,12.30
2022-09-30T16:08:26.854Z,12.30
2022-09-30T16:10:55.334Z,12.40
2022-09-30T16:13:25.097Z,12.30
2022-09-30T16:15:54.352Z,12.30
2022-09-30T16:18:24.924Z,12.30
2022-09-30T16:21:00.903Z,12.30
2022-09-30T16:23:31.347Z,12.30
2022-09-30T16:26:30.192Z,12.30
2022-09-30T16:29:01.858Z,12.20
2022-09-30T16:31:30.985Z,12.10
2022-09-30T16:33:59.115Z,12.20
2022-09-30T16:36:27.091Z,12.10
2022-09-30T16:38:56.618Z,12.10
2022-09-30T16:41:26.192Z,12.00
2022-09-30T16:43:54.208Z,12.00
2022-09-30T16:46:22.522Z,11.90
2022-09-30T16:48:50.549Z,12.00
2022-09-30T16:51:18.479Z,12.10
2022-09-30T16:53:47.892Z,12.10
2022-09-30T16:56:18.357Z,12.00
2022-09-30T16:58:46.433Z,11.90
2022-09-30T17:01:18.302Z,11.80
2022-09-30T17:03:46.508Z,11.90
2022-09-30T17:06:14.373Z,11.90
2022-09-30T17:08:42.430Z,11.80
2022-09-30T17:11:11.025Z,11.80
2022-09-30T17:13:40.792Z,11.70
2022-09-30T17:16:08.743Z,11.70
2022-09-30T17:18:36.755Z,11.70
2022-09-30T17:21:06.879Z,11.80
2022-09-30T17:23:35.033Z,11.70
2022-09-30T17:26:06.486Z,11.70
2022-09-30T17:28:34.805Z,11.70
2022-09-30T17:31:04.431Z,11.70
2022-09-30T17:33:32.606Z,11.70
2022-09-30T17:36:00.938Z,11.80
2022-09-30T17:38:29.213Z,11.80
2022-09-30T17:41:14.643Z,11.90
2022-09-30T17:43:42.721Z,11.90
2022-09-30T17:46:12.246Z,11.90
2022-09-30T17:48:40.433Z,11.90
2022-09-30T17:51:09.025Z,11.90
2022-09-30T17:53:38.106Z,11.70
2022-09-30T17:56:12.326Z,11.60
2022-09-30T17:58:40.505Z,11.80
2022-09-30T18:01:09.044Z,11.70
2022-09-30T18:03:38.512Z,11.60
2022-09-30T18:06:06.548Z,11.60
2022-09-30T18:08:34.712Z,11.50
2022-09-30T18:11:03.019Z,11.50
2022-09-30T18:13:30.908Z,11.60
2022-09-30T18:16:01.995Z,11.60
2022-09-30T18:18:30.314Z,11.70
2022-09-30T18:20:59.663Z,11.60
2022-09-30T18:23:27.715Z,11.50
2022-09-30T18:25:56.218Z,11.50
2022-09-30T18:28:24.378Z,11.60
2022-09-30T18:30:52.305Z,11.50
2022-09-30T18:33:21.720Z,11.50
2022-09-30T18:35:51.327Z,11.50
2022-09-30T18:38:22.902Z,11.40
2022-09-30T18:40:50.976Z,11.30
2022-09-30T18:43:18.913Z,11.30
2022-09-30T18:45:53.682Z,11.40
2022-09-30T18:48:21.592Z,11.30
2022-09-30T18:50:51.551Z,11.30
2022-09-30T18:53:21.496Z,11.30
2022-09-30T18:55:49.484Z,11.30
2022-09-30T18:58:17.431Z,11.30
2022-09-30T19:00:45.623Z,11.30
2022-09-30T19:03:16.195Z,11.40
2022-09-30T19:05:44.145Z,11.40
2022-09-30T19:08:12.664Z,11.30
2022-09-30T19:10:42.693Z,11.20
2022-09-30T19:13:10.688Z,11.30
2022-09-30T19:15:39.369Z,11.30
2022-09-30T19:18:07.252Z,11.30
2022-09-30T19:20:37.692Z,11.30
2022-09-30T19:23:08.924Z,11.30
2022-09-30T19:25:38.898Z,11.30
2022-09-30T19:28:08.203Z,11.20
2022-09-30T19:30:36.327Z,11.20
2022-09-30T19:33:04.421Z,11.30
2022-09-30T19:35:39.824Z,11.20
2022-09-30T19:38:09.287Z,11.10
2022-09-30T19:40:37.414Z,11.10
2022-09-30T19:43:06.305Z,11.20
2022-09-30T19:45:35.802Z,11.20
2022-09-30T19:48:04.160Z,11.20
2022-09-30T19:50:32.159Z,11.30
2022-09-30T19:53:00.089Z,11.30
2022-09-30T19:55:28.485Z,11.30
2022-09-30T19:57:56.487Z,11.20
2022-09-30T20:00:24.668Z,11.20
2022-09-30T20:02:54.275Z,11.20
2022-09-30T20:05:23.741Z,11.10
2022-09-30T20:07:52.786Z,11.20
2022-09-30T20:10:20.682Z,11.20
2022-09-30T20:12:48.566Z,11.00
2022-09-30T20:15:34.351Z,11.00
2022-09-30T20:18:03.561Z,11.10
2022-09-30T20:20:38.447Z,11.00
2022-09-30T20:23:06.328Z,11.10
2022-09-30T20:25:35.511Z,11.10
2022-09-30T20:28:04.725Z,11.10
2022-09-30T20:30:33.239Z,11.10
2022-09-30T20:33:01.358Z,11.00
2022-09-30T20:35:30.710Z,11.10
2022-09-30T20:37:58.604Z,11.20
2022-09-30T20:40:26.603Z,11.10
2022-09-30T20:43:00.678Z,11.00
2022-09-30T20:45:29.367Z,11.00
2022-09-30T20:47:57.224Z,11.00
2022-09-30T20:50:35.950Z,11.00
2022-09-30T20:53:06.918Z,11.00
2022-09-30T20:55:36.578Z,11.10
2022-09-30T20:58:04.865Z,11.00
2022-09-30T21:00:33.730Z,10.90
2022-09-30T21:03:01.584Z,11.00
2022-09-30T21:05:31.005Z,11.00
2022-09-30T21:07:59.316Z,10.90
2022-09-30T21:10:29.733Z,11.00
2022-09-30T21:12:58.261Z,11.00
2022-09-30T21:15:26.466Z,11.00
2022-09-30T21:17:54.819Z,10.90
2022-09-30T21:20:25.707Z,11.00
2022-09-30T21:22:53.821Z,11.00
2022-09-30T21:25:21.909Z,11.00
2022-09-30T21:27:51.297Z,10.90
2022-09-30T21:30:19.329Z,10.90
2022-09-30T21:32:48.835Z,10.90
2022-09-30T21:35:17.146Z,11.00
2022-09-30T21:37:45.381Z,10.90
2022-09-30T21:40:13.291Z,10.90
2022-09-30T21:42:42.016Z,10.90
2022-09-30T21:45:12.233Z,10.90
2022-09-30T21:47:40.674Z,10.90
2022-09-30T21:50:09.673Z,10.90
2022-09-30T21:52:39.472Z,10.90
2022-09-30T21:55:08.139Z,10.90
2022-09-30T21:57:36.125Z,10.80
2022-09-30T22:00:05.095Z,10.80
2022-09-30T22:02:34.445Z,10.80
2022-09-30T22:05:02.407Z,10.80
2022-09-30T22:07:30.480Z,10.80
2022-09-30T22:09:58.333Z,10.70
2022-09-30T22:12:26.299Z,10.60
2022-09-30T22:14:54.174Z,10.60
2022-09-30T22:17:22.043Z,10.60
2022-09-30T22:19:51.268Z,10.60
2022-09-30T22:22:19.143Z,10.60
2022-09-30T22:24:48.071Z,10.50
2022-09-30T22:27:15.923Z,10.70
2022-09-30T22:29:43.918Z,10.80
2022-09-30T22:32:11.855Z,10.50
2022-09-30T22:34:57.328Z,10.40
2022-09-30T22:37:44.046Z,10.60
2022-09-30T22:40:12.163Z,10.50
2022-09-30T22:42:40.064Z,10.30
2022-09-30T22:45:08.859Z,10.30
2022-09-30T22:47:36.970Z,10.30
2022-09-30T22:50:05.112Z,10.20
2022-09-30T22:52:34.358Z,10.20
2022-09-30T22:55:02.365Z,10.20
2022-09-30T22:57:30.950Z,10.10
2022-09-30T22:59:59.774Z,10.00
2022-09-30T23:02:27.706Z,10.00
2022-09-30T23:04:55.568Z,9.90
2022-09-30T23:07:23.443Z,9.80
2022-09-30T23:09:52.668Z,9.70
2022-09-30T23:12:21.427Z,9.70
2022-09-30T23:14:49.276Z,9.70
2022-09-30T23:17:17.665Z,9.60
2022-09-30T23:19:45.643Z,9.50
2022-09-30T23:22:13.606Z,9.50
2022-09-30T23:24:41.476Z,9.50
2022-09-30T23:27:10.704Z,9.50
2022-09-30T23:29:38.692Z,9.60
2022-09-30T23:32:21.293Z,9.50
2022-09-30T23:34:49.257Z,9.60
2022-09-30T23:37:17.108Z,9.60
2022-09-30T23:39:45.040Z,9.60
2022-09-30T23:42:14.298Z,9.60
2022-09-30T23:44:42.263Z,9.70
2022-09-30T23:47:18.970Z,9.60
2022-09-30T23:49:47.001Z,9.60
2022-09-30T23:52:15.065Z,9.60
2022-09-30T23:54:42.992Z,9.70
2022-09-30T23:57:10.910Z,9.80
2022-09-30T23:59:40.121Z,9.80
